createdAt,value
2022-12-31T00:02:47.549Z,101144.78
2022-12-31T00:05:49.471Z,101144.38
2022-12-31T00:08:52.027Z,101143.13
2022-12-31T00:11:53.906Z,101152.06
2022-12-31T00:14:55.727Z,101149.56
2022-12-31T00:17:57.565Z,101163.09
2022-12-31T00:20:59.423Z,101151.87
2022-12-31T00:24:01.603Z,101151.94
2022-12-31T00:27:03.493Z,101157.94
2022-12-31T00:30:05.573Z,101172.31
2022-12-31T00:33:07.453Z,101163.81
2022-12-31T00:36:13.438Z,101170.81
2022-12-31T00:39:15.335Z,101182.31
2022-12-31T00:42:17.200Z,101174.53
2022-12-31T00:45:19.127Z,101183.66
2022-12-31T00:48:21.158Z,101189.50
2022-12-31T00:51:23.655Z,101195.09
2022-12-31T00:54:25.558Z,101187.31
2022-12-31T00:57:27.405Z,101197.78
2022-12-31T01:00:29.299Z,101197.09
2022-12-31T01:03:31.217Z,101193.63
2022-12-31T01:06:33.176Z,101204.22
2022-12-31T01:09:35.215Z,101206.00
2022-12-31T01:12:37.208Z,101207.88
2022-12-31T01:15:39.173Z,101202.84
2022-12-31T01:18:41.407Z,101202.59
2022-12-31T01:21:43.864Z,101200.88
2022-12-31T01:24:45.696Z,101203.31
2022-12-31T01:27:47.511Z,101194.97
2022-12-31T01:30:49.394Z,101192.63
2022-12-31T01:33:51.401Z,101214.78
2022-12-31T01:36:53.255Z,101206.34
2022-12-31T01:39:55.115Z,101206.66
2022-12-31T01:42:57.151Z,101215.81
2022-12-31T01:45:59.085Z,101212.25
2022-12-31T01:49:02.362Z,101208.81
2022-12-31T01:52:04.237Z,101208.38
2022-12-31T01:55:07.933Z,101211.62
2022-12-31T01:58:11.389Z,101216.22
2022-12-31T02:01:13.992Z,101201.66
2022-12-31T02:04:15.897Z,101200.66
2022-12-31T02:07:17.860Z,101206.66
2022-12-31T02:10:19.736Z,101218.34
2022-12-31T02:13:21.604Z,101223.06
2022-12-31T02:16:27.312Z,101210.59
2022-12-31T02:19:52.285Z,101212.06
2022-12-31T02:23:14.392Z,101204.06
2022-12-31T02:26:31.377Z,101209.56
2022-12-31T02:29:51.627Z,101199.16
2022-12-31T02:32:55.618Z,101207.09
2022-12-31T02:35:58.628Z,101211.28
2022-12-31T02:39:00.546Z,101205.03
2022-12-31T02:42:02.842Z,101215.03
2022-12-31T02:45:04.897Z,101229.19
2022-12-31T02:48:19.185Z,101221.09
2022-12-31T02:51:47.281Z,101216.59
2022-12-31T02:55:07.799Z,101212.19
2022-12-31T02:58:48.434Z,101211.47
2022-12-31T03:02:13.804Z,101217.69
2022-12-31T03:05:16.293Z,101203.41
2022-12-31T03:08:25.435Z,101188.63
2022-12-31T03:11:45.823Z,101187.06
2022-12-31T03:14:47.654Z,101177.97
2022-12-31T03:18:00.657Z,101201.00
2022-12-31T03:21:21.256Z,101195.69
2022-12-31T03:24:42.006Z,101171.88
2022-12-31T03:27:44.545Z,101192.75
2022-12-31T03:30:47.839Z,101199.94
2022-12-31T03:33:49.684Z,101201.47
2022-12-31T03:36:51.624Z,101191.69
2022-12-31T03:39:53.523Z,101201.19
2022-12-31T03:42:55.410Z,101201.94
2022-12-31T03:45:59.821Z,101183.91
2022-12-31T03:49:01.754Z,101177.44
2022-12-31T03:52:03.726Z,101173.81
2022-12-31T03:55:06.201Z,101182.44
2022-12-31T03:58:08.063Z,101186.06
2022-12-31T04:01:10.052Z,101201.31
2022-12-31T04:04:12.144Z,101194.44
2022-12-31T04:07:14.015Z,101192.44
2022-12-31T04:10:16.953Z,101196.97
2022-12-31T04:13:18.809Z,101197.16
2022-12-31T04:16:20.667Z,101194.41
2022-12-31T04:19:22.590Z,101199.16
2022-12-31T04:22:24.438Z,101200.50
2022-12-31T04:25:26.287Z,101188.12
2022-12-31T04:28:28.113Z,101184.72
2022-12-31T04:31:30.152Z,101197.41
2022-12-31T04:34:32.413Z,101215.41
2022-12-31T04:37:34.286Z,101221.06
2022-12-31T04:40:56.129Z,101219.63
2022-12-31T04:43:58.449Z,101229.56
2022-12-31T04:47:00.410Z,101230.00
2022-12-31T04:50:02.577Z,101226.66
2022-12-31T04:53:04.435Z,101234.81
2022-12-31T04:56:06.908Z,101232.84
2022-12-31T04:59:10.163Z,101225.78
2022-12-31T05:02:12.166Z,101242.41
2022-12-31T05:05:14.117Z,101261.91
2022-12-31T05:08:15.977Z,101253.72
2022-12-31T05:11:18.021Z,101265.78
2022-12-31T05:14:20.064Z,101264.41
2022-12-31T05:17:22.020Z,101267.47
2022-12-31T05:20:23.903Z,101277.84
2022-12-31T05:23:25.788Z,101270.47
2022-12-31T05:26:27.655Z,101266.28
2022-12-31T05:29:29.570Z,101278.63
2022-12-31T05:32:31.593Z,101273.22
2022-12-31T05:35:34.455Z,101269.78
2022-12-31T05:38:37.194Z,101268.44
2022-12-31T05:41:39.102Z,101286.69
2022-12-31T05:44:40.984Z,101293.19
2022-12-31T05:47:42.986Z,101313.50
2022-12-31T05:50:44.901Z,101303.53
2022-12-31T05:53:46.844Z,101293.09
2022-12-31T05:56:48.727Z,101298.37
2022-12-31T05:59:53.525Z,101302.84
2022-12-31T06:02:55.518Z,101304.25
2022-12-31T06:05:57.495Z,101293.47
2022-12-31T06:08:59.360Z,101293.00
2022-12-31T06:12:01.186Z,101305.47
2022-12-31T06:15:03.162Z,101300.53
2022-12-31T06:18:05.091Z,101311.97
2022-12-31T06:21:07.081Z,101298.37
2022-12-31T06:24:09.066Z,101292.47
2022-12-31T06:27:10.942Z,101290.00
2022-12-31T06:30:13.254Z,101300.19
2022-12-31T06:33:15.392Z,101302.38
2022-12-31T06:36:17.401Z,101303.09
2022-12-31T06:39:19.356Z,101314.31
2022-12-31T06:42:21.199Z,101307.91
2022-12-31T06:45:23.051Z,101313.09
2022-12-31T06:48:25.017Z,101320.34
2022-12-31T06:51:26.922Z,101318.75
2022-12-31T06:54:28.832Z,101319.47
2022-12-31T06:57:30.946Z,101317.91
2022-12-31T07:00:32.980Z,101331.13
2022-12-31T07:03:37.962Z,101330.59
2022-12-31T07:06:46.050Z,101329.69
2022-12-31T07:09:47.885Z,101329.47
2022-12-31T07:13:09.708Z,101339.66
2022-12-31T07:16:26.670Z,101345.31
2022-12-31T07:19:37.794Z,101347.72
2022-12-31T07:22:40.159Z,101348.75
2022-12-31T07:25:44.503Z,101363.22
2022-12-31T07:28:52.598Z,101369.97
2022-12-31T07:31:57.244Z,101353.38
2022-12-31T07:35:05.403Z,101346.97
2022-12-31T07:38:22.401Z,101350.34
2022-12-31T07:41:27.001Z,101340.94
2022-12-31T07:44:41.492Z,101339.38
2022-12-31T07:47:43.682Z,101339.44
2022-12-31T07:50:45.621Z,101359.53
2022-12-31T07:53:47.674Z,101370.66
2022-12-31T07:56:49.585Z,101356.56
2022-12-31T07:59:51.510Z,101356.09
2022-12-31T08:02:56.574Z,101357.59
2022-12-31T08:06:08.663Z,101372.09
2022-12-31T08:09:13.682Z,101370.69
2022-12-31T08:12:15.805Z,101374.50
2022-12-31T08:15:18.384Z,101386.47
2022-12-31T08:18:20.369Z,101386.00
2022-12-31T08:21:29.479Z,101373.50
2022-12-31T08:24:41.315Z,101372.66
2022-12-31T08:27:46.212Z,101400.63
2022-12-31T08:30:53.950Z,101406.81
2022-12-31T08:34:06.186Z,101400.47
2022-12-31T08:37:08.253Z,101426.72
2022-12-31T08:40:33.478Z,101424.38
2022-12-31T08:43:41.205Z,101432.78
2022-12-31T08:47:02.006Z,101427.50
2022-12-31T08:50:04.294Z,101428.81
2022-12-31T08:53:06.307Z,101436.84
2022-12-31T08:56:10.689Z,101445.81
2022-12-31T08:59:31.317Z,101439.00
2022-12-31T09:02:33.215Z,101439.66
2022-12-31T09:05:53.126Z,101435.53
2022-12-31T09:09:01.039Z,101439.53
2022-12-31T09:12:05.907Z,101436.91
2022-12-31T09:15:07.974Z,101444.06
2022-12-31T09:18:10.133Z,101440.66
2022-12-31T09:21:13.497Z,101418.44
2022-12-31T09:24:15.763Z,101435.66
2022-12-31T09:27:23.865Z,101426.41
2022-12-31T09:30:29.420Z,101429.87
2022-12-31T09:33:43.211Z,101424.56
2022-12-31T09:36:46.900Z,101416.03
2022-12-31T09:39:48.848Z,101411.50
2022-12-31T09:43:09.639Z,101393.09
2022-12-31T09:46:30.507Z,101401.75
2022-12-31T09:49:32.524Z,101384.06
2022-12-31T09:52:47.700Z,101372.34
2022-12-31T09:55:51.608Z,101366.13
2022-12-31T09:59:04.111Z,101349.28
2022-12-31T10:02:15.210Z,101357.59
2022-12-31T10:05:30.123Z,101357.44
2022-12-31T10:08:50.724Z,101346.91
2022-12-31T10:11:55.724Z,101345.47
2022-12-31T10:14:57.753Z,101356.59
2022-12-31T10:18:14.175Z,101352.88
2022-12-31T10:21:34.860Z,101357.06
2022-12-31T10:24:49.708Z,101358.13
2022-12-31T10:27:55.542Z,101364.19
2022-12-31T10:31:03.025Z,101363.81
2022-12-31T10:34:04.871Z,101367.75
2022-12-31T10:37:07.056Z,101376.16
2022-12-31T10:40:08.876Z,101360.16
2022-12-31T10:43:16.785Z,101359.88
2022-12-31T10:46:30.606Z,101366.59
2022-12-31T10:49:41.754Z,101379.09
2022-12-31T10:52:43.574Z,101345.16
2022-12-31T10:55:45.642Z,101369.25
2022-12-31T10:59:06.234Z,101358.87
2022-12-31T11:02:08.388Z,101358.25
2022-12-31T11:05:25.679Z,101357.12
2022-12-31T11:08:39.696Z,101357.19
2022-12-31T11:11:47.992Z,101337.81
2022-12-31T11:15:08.770Z,101356.63
2022-12-31T11:18:18.211Z,101354.91
2022-12-31T11:21:39.461Z,101337.44
2022-12-31T11:24:58.503Z,101344.66
2022-12-31T11:28:19.192Z,101341.56
2022-12-31T11:31:42.513Z,101321.03
2022-12-31T11:34:50.283Z,101354.44
2022-12-31T11:37:53.357Z,101345.87
2022-12-31T11:40:55.243Z,101347.09
2022-12-31T11:44:03.636Z,101347.59
2022-12-31T11:47:31.970Z,101346.06
2022-12-31T11:50:33.908Z,101345.19
2022-12-31T11:53:35.924Z,101328.63
2022-12-31T11:56:39.118Z,101316.59
2022-12-31T11:59:41.147Z,101319.47
2022-12-31T12:02:43.701Z,101332.63
2022-12-31T12:05:45.595Z,101338.50
2022-12-31T12:08:47.748Z,101345.81
2022-12-31T12:11:57.322Z,101345.31
2022-12-31T12:14:59.267Z,101348.63
2022-12-31T12:18:05.401Z,101357.41
2022-12-31T12:21:16.658Z,101356.06
2022-12-31T12:24:18.626Z,101359.22
2022-12-31T12:27:22.024Z,101369.59
2022-12-31T12:30:24.865Z,101357.44
2022-12-31T12:33:27.293Z,101351.59
2022-12-31T12:36:29.205Z,101358.31
2022-12-31T12:39:32.638Z,101358.16
2022-12-31T12:42:34.559Z,101342.78
2022-12-31T12:45:49.017Z,101323.31
2022-12-31T12:48:55.148Z,101351.34
2022-12-31T12:52:07.052Z,101342.66
2022-12-31T12:55:18.072Z,101340.69
2022-12-31T12:58:58.293Z,101337.69
2022-12-31T13:02:19.235Z,101344.88
2022-12-31T13:05:27.745Z,101324.06
2022-12-31T13:08:35.793Z,101339.19
2022-12-31T13:11:40.629Z,101332.13
2022-12-31T13:14:42.530Z,101327.03
2022-12-31T13:18:01.915Z,101307.09
2022-12-31T13:21:30.664Z,101330.53
2022-12-31T13:24:32.538Z,101331.16
2022-12-31T13:27:35.668Z,101348.56
2022-12-31T13:30:41.894Z,101354.81
2022-12-31T13:33:48.379Z,101354.25
2022-12-31T13:36:50.862Z,101345.75
2022-12-31T13:39:55.839Z,101351.09
2022-12-31T13:43:00.234Z,101352.03
2022-12-31T13:46:08.892Z,101338.78
2022-12-31T13:49:21.793Z,101340.72
2022-12-31T13:52:40.574Z,101337.16
2022-12-31T13:55:44.391Z,101328.09
2022-12-31T13:59:03.819Z,101339.34
2022-12-31T14:02:24.800Z,101363.25
2022-12-31T14:05:30.229Z,101374.94
2022-12-31T14:08:32.209Z,101384.56
2022-12-31T14:11:52.758Z,101361.06
2022-12-31T14:14:57.589Z,101354.94
2022-12-31T14:18:17.876Z,101377.62
2022-12-31T14:21:28.914Z,101366.78
2022-12-31T14:24:51.280Z,101371.88
2022-12-31T14:27:53.559Z,101361.91
2022-12-31T14:31:17.126Z,101362.19
2022-12-31T14:34:21.507Z,101357.78
2022-12-31T14:37:28.067Z,101370.47
2022-12-31T14:40:32.982Z,101387.22
2022-12-31T14:43:39.543Z,101379.63
2022-12-31T14:46:44.555Z,101373.66
2022-12-31T14:49:52.462Z,101360.31
2022-12-31T14:53:00.425Z,101357.81
2022-12-31T14:56:03.469Z,101346.97
2022-12-31T14:59:19.775Z,101371.44
2022-12-31T15:02:34.681Z,101358.87
2022-12-31T15:05:37.273Z,101367.34
2022-12-31T15:08:51.525Z,101363.25
2022-12-31T15:12:08.654Z,101375.69
2022-12-31T15:15:13.349Z,101365.66
2022-12-31T15:18:27.650Z,101362.16
2022-12-31T15:21:35.689Z,101352.53
2022-12-31T15:24:37.583Z,101366.16
2022-12-31T15:27:42.343Z,101378.41
2022-12-31T15:30:47.891Z,101389.56
2022-12-31T15:33:54.218Z,101379.53
2022-12-31T15:36:57.483Z,101394.78
2022-12-31T15:40:18.252Z,101384.09
2022-12-31T15:43:32.184Z,101382.66
2022-12-31T15:46:36.935Z,101375.97
2022-12-31T15:49:41.067Z,101395.47
2022-12-31T15:52:43.431Z,101397.56
2022-12-31T15:55:46.727Z,101402.59
2022-12-31T15:58:48.525Z,101408.16
2022-12-31T16:01:50.581Z,101384.91
2022-12-31T16:04:52.533Z,101375.25
2022-12-31T16:07:58.316Z,101381.16
2022-12-31T16:11:00.291Z,101383.28
2022-12-31T16:14:02.148Z,101373.38
2022-12-31T16:17:04.264Z,101380.78
2022-12-31T16:20:22.899Z,101390.72
2022-12-31T16:23:25.913Z,101380.84
2022-12-31T16:26:29.432Z,101376.91
2022-12-31T16:29:31.244Z,101384.22
2022-12-31T16:32:37.319Z,101371.03
2022-12-31T16:35:39.391Z,101383.97
2022-12-31T16:38:41.323Z,101381.59
2022-12-31T16:41:43.464Z,101372.41
2022-12-31T16:44:45.917Z,101371.00
2022-12-31T16:47:47.784Z,101378.53
2022-12-31T16:50:50.976Z,101395.19
2022-12-31T16:53:52.864Z,101398.94
2022-12-31T16:56:54.687Z,101413.00
2022-12-31T17:00:04.410Z,101405.06
2022-12-31T17:03:25.251Z,101394.88
2022-12-31T17:06:28.413Z,101399.75
2022-12-31T17:09:35.035Z,101385.56
2022-12-31T17:13:25.443Z,101388.84
2022-12-31T17:16:09.394Z,101415.88
2022-12-31T17:19:40.864Z,101411.72
2022-12-31T17:22:42.922Z,101402.72
2022-12-31T17:25:44.907Z,101390.69
2022-12-31T17:28:47.714Z,101396.50
2022-12-31T17:31:59.915Z,101409.28
2022-12-31T17:35:01.784Z,101419.00
2022-12-31T17:38:22.086Z,101417.69
2022-12-31T17:41:27.035Z,101419.63
2022-12-31T17:44:29.323Z,101420.28
2022-12-31T17:47:35.611Z,101435.88
2022-12-31T17:50:37.439Z,101426.75
2022-12-31T17:53:39.332Z,101428.78
2022-12-31T17:56:41.366Z,101430.50
2022-12-31T17:59:43.231Z,101431.31
2022-12-31T18:02:45.616Z,101437.25
2022-12-31T18:05:47.607Z,101429.34
2022-12-31T18:08:49.671Z,101416.75
2022-12-31T18:11:54.353Z,101412.34
2022-12-31T18:14:58.798Z,101415.41
2022-12-31T18:18:00.642Z,101411.94
2022-12-31T18:21:26.751Z,101416.69
2022-12-31T18:24:28.602Z,101415.72
2022-12-31T18:27:34.106Z,101416.34
2022-12-31T18:30:35.944Z,101427.81
2022-12-31T18:33:37.910Z,101432.38
2022-12-31T18:36:40.157Z,101426.75
2022-12-31T18:39:42.045Z,101427.59
2022-12-31T18:42:43.895Z,101429.69
2022-12-31T18:45:46.431Z,101433.78
2022-12-31T18:48:48.456Z,101446.50
2022-12-31T18:51:54.088Z,101455.38
2022-12-31T18:54:55.956Z,101455.44
2022-12-31T18:57:57.780Z,101454.53
2022-12-31T19:00:59.877Z,101455.75
2022-12-31T19:04:10.930Z,101464.47
2022-12-31T19:07:13.008Z,101464.28
2022-12-31T19:10:16.362Z,101462.44
2022-12-31T19:13:19.317Z,101463.16
2022-12-31T19:16:21.237Z,101462.31
2022-12-31T19:19:23.137Z,101460.66
2022-12-31T19:22:25.269Z,101455.16
2022-12-31T19:25:34.294Z,101449.41
2022-12-31T19:28:36.299Z,101454.94
2022-12-31T19:31:38.174Z,101442.44
2022-12-31T19:34:40.038Z,101451.63
2022-12-31T19:37:42.431Z,101446.13
2022-12-31T19:40:44.445Z,101450.72
2022-12-31T19:43:47.441Z,101459.47
2022-12-31T19:46:49.416Z,101461.28
2022-12-31T19:49:51.332Z,101454.78
2022-12-31T19:52:54.619Z,101461.25
2022-12-31T19:55:56.528Z,101452.38
2022-12-31T19:58:58.360Z,101451.06
2022-12-31T20:02:00.413Z,101435.69
2022-12-31T20:05:02.358Z,101415.22
2022-12-31T20:08:04.326Z,101418.25
2022-12-31T20:11:10.251Z,101427.94
2022-12-31T20:14:12.169Z,101426.94
2022-12-31T20:17:14.190Z,101427.47
2022-12-31T20:20:16.210Z,101415.69
2022-12-31T20:23:18.245Z,101426.56
2022-12-31T20:26:20.607Z,101422.12
2022-12-31T20:29:22.562Z,101430.22
2022-12-31T20:32:24.467Z,101432.22
2022-12-31T20:35:26.366Z,101433.03
2022-12-31T20:38:28.512Z,101430.47
2022-12-31T20:41:32.129Z,101441.28
2022-12-31T20:44:33.962Z,101443.97
2022-12-31T20:47:35.879Z,101445.31
2022-12-31T20:50:37.923Z,101442.44
2022-12-31T20:53:39.917Z,101442.50
2022-12-31T20:56:41.856Z,101440.06
2022-12-31T20:59:43.818Z,101438.13
2022-12-31T21:02:51.535Z,101438.59
2022-12-31T21:05:58.475Z,101432.91
2022-12-31T21:09:01.184Z,101433.75
2022-12-31T21:12:21.817Z,101430.63
2022-12-31T21:15:23.791Z,101429.28
2022-12-31T21:18:25.689Z,101430.69
2022-12-31T21:21:27.669Z,101438.22
2022-12-31T21:24:30.084Z,101439.34
2022-12-31T21:27:31.924Z,101435.84
2022-12-31T21:30:33.899Z,101452.22
2022-12-31T21:33:35.783Z,101464.25
2022-12-31T21:36:37.787Z,101465.34
2022-12-31T21:39:39.768Z,101474.22
2022-12-31T21:42:41.586Z,101467.31
2022-12-31T21:45:43.519Z,101473.63
2022-12-31T21:48:45.350Z,101468.91
2022-12-31T21:52:06.054Z,101488.63
2022-12-31T21:55:43.761Z,101485.69
2022-12-31T21:58:46.605Z,101482.00
2022-12-31T22:02:07.345Z,101482.41
2022-12-31T22:05:17.568Z,101489.12
2022-12-31T22:08:23.554Z,101482.25
2022-12-31T22:11:26.839Z,101489.91
2022-12-31T22:14:28.743Z,101496.12
2022-12-31T22:17:30.859Z,101497.16
2022-12-31T22:20:32.770Z,101498.31
2022-12-31T22:23:34.850Z,101489.84
2022-12-31T22:26:39.268Z,101483.97
2022-12-31T22:29:45.064Z,101491.41
2022-12-31T22:32:46.924Z,101487.16
2022-12-31T22:36:01.681Z,101491.91
2022-12-31T22:39:03.774Z,101491.00
2022-12-31T22:42:05.665Z,101479.03
2022-12-31T22:45:08.216Z,101475.78
2022-12-31T22:48:10.637Z,101469.00
2022-12-31T22:51:12.606Z,101458.94
2022-12-31T22:54:14.722Z,101465.19
2022-12-31T22:57:20.161Z,101455.41
2022-12-31T23:00:22.473Z,101457.31
2022-12-31T23:03:24.459Z,101457.66
2022-12-31T23:06:26.409Z,101463.56
2022-12-31T23:09:46.817Z,101475.13
2022-12-31T23:12:48.803Z,101443.28
2022-12-31T23:16:09.648Z,101454.25
2022-12-31T23:19:30.400Z,101444.66
2022-12-31T23:22:50.703Z,101445.53
2022-12-31T23:25:52.668Z,101454.03
2022-12-31T23:28:54.604Z,101454.25
2022-12-31T23:31:56.510Z,101448.75
2022-12-31T23:34:58.397Z,101456.38
2022-12-31T23:38:00.309Z,101456.16
2022-12-31T23:41:11.131Z,101467.91
2022-12-31T23:44:13.153Z,101474.34
2022-12-31T23:47:14.994Z,101465.62
2022-12-31T23:50:17.151Z,101470.94
2022-12-31T23:53:19.040Z,101483.56
2022-12-31T23:56:23.904Z,101479.28
2022-12-31T23:59:26.113Z,101459.06
